sensor_id;sensor_type;location;lat;lon;timestamp;P1;durP1;ratioP1;P2;durP2;ratioP2
74158;SDS011;62511;47.970;11.774;2022-10-17T00:02:05;1.73;;;1.45;;
74158;SDS011;62511;47.970;11.774;2022-10-17T00:04:31;2.97;;;1.50;;
74158;SDS011;62511;47.970;11.774;2022-10-17T00:06:57;2.25;;;1.50;;
74158;SDS011;62511;47.970;11.774;2022-10-17T00:09:23;1.92;;;1.40;;
74158;SDS011;62511;47.970;11.774;2022-10-17T00:11:49;2.13;;;1.40;;
74158;SDS011;62511;47.970;11.774;2022-10-17T00:14:17;2.88;;;1.48;;
74158;SDS011;62511;47.970;11.774;2022-10-17T00:19:08;2.08;;;1.40;;
74158;SDS011;62511;47.970;11.774;2022-10-17T00:21:34;2.17;;;1.38;;
74158;SDS011;62511;47.970;11.774;2022-10-17T00:24:00;1.70;;;1.10;;
74158;SDS011;62511;47.970;11.774;2022-10-17T00:26:26;2.17;;;1.30;;
74158;SDS011;62511;47.970;11.774;2022-10-17T00:28:54;2.08;;;1.25;;
74158;SDS011;62511;47.970;11.774;2022-10-17T00:31:23;2.40;;;1.67;;
74158;SDS011;62511;47.970;11.774;2022-10-17T00:33:49;2.22;;;1.65;;
74158;SDS011;62511;47.970;11.774;2022-10-17T00:36:19;2.13;;;1.55;;
74158;SDS011;62511;47.970;11.774;2022-10-17T00:38:46;2.65;;;1.60;;
74158;SDS011;62511;47.970;11.774;2022-10-17T00:41:13;2.50;;;1.48;;
74158;SDS011;62511;47.970;11.774;2022-10-17T00:46:18;2.30;;;1.60;;
74158;SDS011;62511;47.970;11.774;2022-10-17T00:48:44;3.35;;;1.60;;
74158;SDS011;62511;47.970;11.774;2022-10-17T00:51:10;3.33;;;1.15;;
74158;SDS011;62511;47.970;11.774;2022-10-17T00:53:36;3.35;;;1.70;;
74158;SDS011;62511;47.970;11.774;2022-10-17T00:56:04;1.88;;;1.40;;
74158;SDS011;62511;47.970;11.774;2022-10-17T00:58:30;1.95;;;1.40;;
74158;SDS011;62511;47.970;11.774;2022-10-17T01:00:56;1.70;;;1.27;;
74158;SDS011;62511;47.970;11.774;2022-10-17T01:03:22;2.58;;;1.42;;
74158;SDS011;62511;47.970;11.774;2022-10-17T01:05:48;1.77;;;1.27;;
74158;SDS011;62511;47.970;11.774;2022-10-17T01:08:14;1.85;;;1.38;;
74158;SDS011;62511;47.970;11.774;2022-10-17T01:11:04;2.25;;;1.50;;
74158;SDS011;62511;47.970;11.774;2022-10-17T01:18:35;2.50;;;1.50;;
74158;SDS011;62511;47.970;11.774;2022-10-17T01:31:24;3.35;;;1.50;;
74158;SDS011;62511;47.970;11.774;2022-10-17T01:34:03;3.33;;;1.27;;
74158;SDS011;62511;47.970;11.774;2022-10-17T01:36:37;3.75;;;1.55;;
74158;SDS011;62511;47.970;11.774;2022-10-17T01:41:33;2.13;;;1.40;;
74158;SDS011;62511;47.970;11.774;2022-10-17T01:44:03;2.28;;;1.42;;
74158;SDS011;62511;47.970;11.774;2022-10-17T01:48:56;4.03;;;1.55;;
74158;SDS011;62511;47.970;11.774;2022-10-17T01:51:27;2.95;;;1.35;;
74158;SDS011;62511;47.970;11.774;2022-10-17T01:53:59;3.85;;;1.38;;
74158;SDS011;62511;47.970;11.774;2022-10-17T01:56:26;2.00;;;1.40;;
74158;SDS011;62511;47.970;11.774;2022-10-17T01:58:56;3.13;;;1.35;;
74158;SDS011;62511;47.970;11.774;2022-10-17T02:01:23;2.45;;;1.30;;
74158;SDS011;62511;47.970;11.774;2022-10-17T02:03:52;2.72;;;1.50;;
74158;SDS011;62511;47.970;11.774;2022-10-17T02:06:18;2.00;;;1.40;;
74158;SDS011;62511;47.970;11.774;2022-10-17T02:08:46;3.28;;;1.63;;
74158;SDS011;62511;47.970;11.774;2022-10-17T02:11:14;4.80;;;1.60;;
74158;SDS011;62511;47.970;11.774;2022-10-17T02:18:57;2.92;;;1.52;;
74158;SDS011;62511;47.970;11.774;2022-10-17T02:31:21;2.53;;;1.52;;
74158;SDS011;62511;47.970;11.774;2022-10-17T02:33:55;1.98;;;1.25;;
74158;SDS011;62511;47.970;11.774;2022-10-17T02:36:46;2.92;;;1.25;;
74158;SDS011;62511;47.970;11.774;2022-10-17T02:39:10;1.98;;;1.33;;
74158;SDS011;62511;47.970;11.774;2022-10-17T02:41:37;2.70;;;1.70;;
74158;SDS011;62511;47.970;11.774;2022-10-17T02:44:04;3.50;;;1.52;;
74158;SDS011;62511;47.970;11.774;2022-10-17T02:46:31;4.60;;;1.52;;
74158;SDS011;62511;47.970;11.774;2022-10-17T02:49:02;1.95;;;1.48;;
74158;SDS011;62511;47.970;11.774;2022-10-17T02:52:13;2.05;;;1.60;;
74158;SDS011;62511;47.970;11.774;2022-10-17T02:59:49;3.08;;;1.30;;
74158;SDS011;62511;47.970;11.774;2022-10-17T03:02:16;2.85;;;1.60;;
74158;SDS011;62511;47.970;11.774;2022-10-17T03:04:43;1.38;;;1.20;;
74158;SDS011;62511;47.970;11.774;2022-10-17T03:07:09;1.75;;;1.23;;
74158;SDS011;62511;47.970;11.774;2022-10-17T03:09:36;2.15;;;1.30;;
74158;SDS011;62511;47.970;11.774;2022-10-17T03:12:02;1.63;;;1.30;;
74158;SDS011;62511;47.970;11.774;2022-10-17T03:14:28;2.80;;;1.40;;
74158;SDS011;62511;47.970;11.774;2022-10-17T03:16:54;3.13;;;1.15;;
74158;SDS011;62511;47.970;11.774;2022-10-17T03:19:20;5.95;;;1.40;;
74158;SDS011;62511;47.970;11.774;2022-10-17T03:21:46;1.98;;;1.13;;
74158;SDS011;62511;47.970;11.774;2022-10-17T03:24:12;2.58;;;1.63;;
74158;SDS011;62511;47.970;11.774;2022-10-17T03:26:38;1.50;;;1.27;;
74158;SDS011;62511;47.970;11.774;2022-10-17T03:29:04;2.60;;;1.30;;
74158;SDS011;62511;47.970;11.774;2022-10-17T03:31:30;3.88;;;1.48;;
74158;SDS011;62511;47.970;11.774;2022-10-17T03:33:56;2.70;;;1.45;;
74158;SDS011;62511;47.970;11.774;2022-10-17T03:36:22;1.88;;;1.58;;
74158;SDS011;62511;47.970;11.774;2022-10-17T03:38:49;1.80;;;1.52;;
74158;SDS011;62511;47.970;11.774;2022-10-17T03:41:17;3.50;;;1.70;;
74158;SDS011;62511;47.970;11.774;2022-10-17T03:43:43;1.80;;;1.20;;
74158;SDS011;62511;47.970;11.774;2022-10-17T03:46:09;2.28;;;1.50;;
74158;SDS011;62511;47.970;11.774;2022-10-17T03:48:35;2.20;;;1.67;;
74158;SDS011;62511;47.970;11.774;2022-10-17T03:51:05;2.25;;;1.38;;
74158;SDS011;62511;47.970;11.774;2022-10-17T03:53:32;4.57;;;1.90;;
74158;SDS011;62511;47.970;11.774;2022-10-17T03:56:08;3.00;;;1.92;;
74158;SDS011;62511;47.970;11.774;2022-10-17T03:58:34;2.72;;;1.55;;
74158;SDS011;62511;47.970;11.774;2022-10-17T04:01:06;3.75;;;2.00;;
74158;SDS011;62511;47.970;11.774;2022-10-17T04:03:33;2.88;;;1.88;;
74158;SDS011;62511;47.970;11.774;2022-10-17T04:05:59;3.45;;;1.83;;
74158;SDS011;62511;47.970;11.774;2022-10-17T04:08:25;4.55;;;1.90;;
74158;SDS011;62511;47.970;11.774;2022-10-17T04:10:52;2.90;;;1.63;;
74158;SDS011;62511;47.970;11.774;2022-10-17T04:13:17;3.97;;;1.70;;
74158;SDS011;62511;47.970;11.774;2022-10-17T04:15:59;3.28;;;1.70;;
74158;SDS011;62511;47.970;11.774;2022-10-17T04:18:25;2.58;;;1.55;;
74158;SDS011;62511;47.970;11.774;2022-10-17T04:20:52;3.40;;;1.70;;
74158;SDS011;62511;47.970;11.774;2022-10-17T04:23:18;3.30;;;1.65;;
74158;SDS011;62511;47.970;11.774;2022-10-17T04:25:44;2.38;;;1.67;;
74158;SDS011;62511;47.970;11.774;2022-10-17T04:28:10;2.47;;;1.88;;
74158;SDS011;62511;47.970;11.774;2022-10-17T04:30:36;2.28;;;1.58;;
74158;SDS011;62511;47.970;11.774;2022-10-17T04:33:02;2.65;;;1.77;;
74158;SDS011;62511;47.970;11.774;2022-10-17T04:35:28;3.05;;;1.73;;
74158;SDS011;62511;47.970;11.774;2022-10-17T04:37:54;2.65;;;1.73;;
74158;SDS011;62511;47.970;11.774;2022-10-17T04:40:20;3.13;;;1.50;;
74158;SDS011;62511;47.970;11.774;2022-10-17T04:42:46;3.25;;;1.40;;
74158;SDS011;62511;47.970;11.774;2022-10-17T04:45:12;3.50;;;2.03;;
74158;SDS011;62511;47.970;11.774;2022-10-17T04:47:38;3.38;;;1.48;;
74158;SDS011;62511;47.970;11.774;2022-10-17T04:50:04;2.63;;;1.90;;
74158;SDS011;62511;47.970;11.774;2022-10-17T04:52:30;2.88;;;1.60;;
74158;SDS011;62511;47.970;11.774;2022-10-17T04:54:57;2.97;;;1.42;;
74158;SDS011;62511;47.970;11.774;2022-10-17T04:57:23;2.33;;;1.73;;
74158;SDS011;62511;47.970;11.774;2022-10-17T04:59:49;3.05;;;1.60;;
74158;SDS011;62511;47.970;11.774;2022-10-17T05:02:15;2.88;;;1.67;;
74158;SDS011;62511;47.970;11.774;2022-10-17T05:04:41;3.67;;;1.77;;
74158;SDS011;62511;47.970;11.774;2022-10-17T05:07:07;3.17;;;2.03;;
74158;SDS011;62511;47.970;11.774;2022-10-17T05:09:33;2.47;;;1.90;;
74158;SDS011;62511;47.970;11.774;2022-10-17T05:11:59;2.90;;;1.60;;
74158;SDS011;62511;47.970;11.774;2022-10-17T05:14:25;2.90;;;1.80;;
74158;SDS011;62511;47.970;11.774;2022-10-17T05:16:51;2.03;;;1.52;;
74158;SDS011;62511;47.970;11.774;2022-10-17T05:19:17;2.80;;;1.80;;
74158;SDS011;62511;47.970;11.774;2022-10-17T05:21:43;3.35;;;2.03;;
74158;SDS011;62511;47.970;11.774;2022-10-17T05:24:10;3.08;;;1.63;;
74158;SDS011;62511;47.970;11.774;2022-10-17T05:26:36;2.22;;;1.70;;
74158;SDS011;62511;47.970;11.774;2022-10-17T05:29:02;1.85;;;1.23;;
74158;SDS011;62511;47.970;11.774;2022-10-17T05:31:29;3.28;;;1.77;;
74158;SDS011;62511;47.970;11.774;2022-10-17T05:33:59;2.58;;;1.35;;
74158;SDS011;62511;47.970;11.774;2022-10-17T05:36:26;2.63;;;1.80;;
74158;SDS011;62511;47.970;11.774;2022-10-17T05:38:53;3.85;;;2.50;;
74158;SDS011;62511;47.970;11.774;2022-10-17T05:41:19;4.70;;;2.90;;
74158;SDS011;62511;47.970;11.774;2022-10-17T05:43:46;3.20;;;2.70;;
74158;SDS011;62511;47.970;11.774;2022-10-17T05:46:12;3.72;;;2.30;;
74158;SDS011;62511;47.970;11.774;2022-10-17T05:48:38;4.05;;;2.45;;
74158;SDS011;62511;47.970;11.774;2022-10-17T05:51:06;3.95;;;2.65;;
74158;SDS011;62511;47.970;11.774;2022-10-17T05:53:34;3.00;;;2.13;;
74158;SDS011;62511;47.970;11.774;2022-10-17T05:56:02;3.85;;;2.67;;
74158;SDS011;62511;47.970;11.774;2022-10-17T05:58:29;4.15;;;2.53;;
74158;SDS011;62511;47.970;11.774;2022-10-17T06:00:57;3.78;;;2.00;;
74158;SDS011;62511;47.970;11.774;2022-10-17T06:03:23;3.20;;;1.92;;
74158;SDS011;62511;47.970;11.774;2022-10-17T06:05:50;3.42;;;1.80;;
74158;SDS011;62511;47.970;11.774;2022-10-17T06:08:16;2.03;;;1.38;;
74158;SDS011;62511;47.970;11.774;2022-10-17T06:10:43;4.88;;;1.90;;
74158;SDS011;62511;47.970;11.774;2022-10-17T06:13:11;5.05;;;3.05;;
74158;SDS011;62511;47.970;11.774;2022-10-17T06:15:37;3.25;;;1.67;;
74158;SDS011;62511;47.970;11.774;2022-10-17T06:18:03;2.00;;;1.42;;
74158;SDS011;62511;47.970;11.774;2022-10-17T06:20:29;2.03;;;1.40;;
74158;SDS011;62511;47.970;11.774;2022-10-17T06:22:55;3.58;;;1.58;;
74158;SDS011;62511;47.970;11.774;2022-10-17T06:25:22;3.88;;;1.63;;
74158;SDS011;62511;47.970;11.774;2022-10-17T06:27:48;2.30;;;1.60;;
74158;SDS011;62511;47.970;11.774;2022-10-17T06:30:14;3.17;;;1.40;;
74158;SDS011;62511;47.970;11.774;2022-10-17T06:32:40;2.90;;;1.73;;
74158;SDS011;62511;47.970;11.774;2022-10-17T06:35:06;2.15;;;1.48;;
74158;SDS011;62511;47.970;11.774;2022-10-17T06:37:33;3.50;;;1.80;;
74158;SDS011;62511;47.970;11.774;2022-10-17T06:40:00;2.65;;;1.80;;
74158;SDS011;62511;47.970;11.774;2022-10-17T06:42:28;8.60;;;2.95;;
74158;SDS011;62511;47.970;11.774;2022-10-17T06:44:54;3.70;;;2.00;;
74158;SDS011;62511;47.970;11.774;2022-10-17T06:47:20;5.82;;;2.08;;
74158;SDS011;62511;47.970;11.774;2022-10-17T06:49:45;3.25;;;1.77;;
74158;SDS011;62511;47.970;11.774;2022-10-17T06:52:12;4.63;;;2.22;;
74158;SDS011;62511;47.970;11.774;2022-10-17T06:54:40;4.18;;;2.15;;
74158;SDS011;62511;47.970;11.774;2022-10-17T06:57:07;4.22;;;2.25;;
74158;SDS011;62511;47.970;11.774;2022-10-17T06:59:33;4.07;;;2.75;;
74158;SDS011;62511;47.970;11.774;2022-10-17T07:02:00;3.30;;;1.85;;
74158;SDS011;62511;47.970;11.774;2022-10-17T07:04:26;3.60;;;2.33;;
74158;SDS011;62511;47.970;11.774;2022-10-17T07:06:52;4.40;;;2.45;;
74158;SDS011;62511;47.970;11.774;2022-10-17T07:09:18;3.42;;;2.00;;
74158;SDS011;62511;47.970;11.774;2022-10-17T07:11:44;3.75;;;2.83;;
74158;SDS011;62511;47.970;11.774;2022-10-17T07:14:10;5.20;;;2.50;;
74158;SDS011;62511;47.970;11.774;2022-10-17T07:16:37;2.97;;;2.00;;
74158;SDS011;62511;47.970;11.774;2022-10-17T07:19:03;4.35;;;2.28;;
74158;SDS011;62511;47.970;11.774;2022-10-17T07:21:30;6.05;;;2.30;;
74158;SDS011;62511;47.970;11.774;2022-10-17T07:23:57;3.63;;;2.38;;
74158;SDS011;62511;47.970;11.774;2022-10-17T07:26:23;4.53;;;3.00;;
74158;SDS011;62511;47.970;11.774;2022-10-17T07:28:50;4.20;;;2.88;;
74158;SDS011;62511;47.970;11.774;2022-10-17T07:31:17;5.75;;;3.13;;
74158;SDS011;62511;47.970;11.774;2022-10-17T07:33:44;5.60;;;2.92;;
74158;SDS011;62511;47.970;11.774;2022-10-17T07:36:10;7.30;;;3.33;;
74158;SDS011;62511;47.970;11.774;2022-10-17T07:38:37;6.35;;;3.33;;
74158;SDS011;62511;47.970;11.774;2022-10-17T07:41:04;5.70;;;2.88;;
74158;SDS011;62511;47.970;11.774;2022-10-17T07:43:31;5.68;;;3.20;;
74158;SDS011;62511;47.970;11.774;2022-10-17T07:45:59;4.93;;;2.90;;
74158;SDS011;62511;47.970;11.774;2022-10-17T07:48:25;5.05;;;2.67;;
74158;SDS011;62511;47.970;11.774;2022-10-17T07:50:51;3.72;;;2.33;;
74158;SDS011;62511;47.970;11.774;2022-10-17T07:53:18;4.05;;;2.38;;
74158;SDS011;62511;47.970;11.774;2022-10-17T07:55:44;4.95;;;2.30;;
74158;SDS011;62511;47.970;11.774;2022-10-17T07:58:12;3.17;;;1.67;;
74158;SDS011;62511;47.970;11.774;2022-10-17T08:00:38;4.75;;;2.20;;
74158;SDS011;62511;47.970;11.774;2022-10-17T08:03:04;3.83;;;1.95;;
74158;SDS011;62511;47.970;11.774;2022-10-17T08:05:31;4.18;;;2.10;;
74158;SDS011;62511;47.970;11.774;2022-10-17T08:07:57;4.80;;;2.47;;
74158;SDS011;62511;47.970;11.774;2022-10-17T08:10:23;3.13;;;1.90;;
74158;SDS011;62511;47.970;11.774;2022-10-17T08:12:52;3.10;;;2.20;;
74158;SDS011;62511;47.970;11.774;2022-10-17T08:15:18;2.78;;;1.90;;
74158;SDS011;62511;47.970;11.774;2022-10-17T08:17:44;2.97;;;2.17;;
74158;SDS011;62511;47.970;11.774;2022-10-17T08:20:10;3.65;;;2.00;;
74158;SDS011;62511;47.970;11.774;2022-10-17T08:22:36;2.08;;;1.73;;
74158;SDS011;62511;47.970;11.774;2022-10-17T08:25:03;3.90;;;2.08;;
74158;SDS011;62511;47.970;11.774;2022-10-17T08:27:29;2.83;;;1.60;;
74158;SDS011;62511;47.970;11.774;2022-10-17T08:29:55;2.38;;;1.60;;
74158;SDS011;62511;47.970;11.774;2022-10-17T08:32:22;1.98;;;1.38;;
74158;SDS011;62511;47.970;11.774;2022-10-17T08:34:49;3.22;;;1.92;;
74158;SDS011;62511;47.970;11.774;2022-10-17T08:37:15;3.97;;;1.92;;
74158;SDS011;62511;47.970;11.774;2022-10-17T08:39:41;3.22;;;1.75;;
74158;SDS011;62511;47.970;11.774;2022-10-17T08:47:13;3.95;;;1.90;;
74158;SDS011;62511;47.970;11.774;2022-10-17T08:49:42;2.97;;;2.30;;
74158;SDS011;62511;47.970;11.774;2022-10-17T08:54:56;2.38;;;1.52;;
74158;SDS011;62511;47.970;11.774;2022-10-17T08:59:50;3.13;;;1.73;;
74158;SDS011;62511;47.970;11.774;2022-10-17T09:02:22;2.30;;;1.80;;
74158;SDS011;62511;47.970;11.774;2022-10-17T09:07:33;2.78;;;1.80;;
74158;SDS011;62511;47.970;11.774;2022-10-17T09:10:09;5.97;;;1.90;;
74158;SDS011;62511;47.970;11.774;2022-10-17T09:12:42;2.35;;;1.70;;
74158;SDS011;62511;47.970;11.774;2022-10-17T09:25:28;2.38;;;1.83;;
74158;SDS011;62511;47.970;11.774;2022-10-17T09:33:14;2.10;;;1.30;;
74158;SDS011;62511;47.970;11.774;2022-10-17T09:35:41;2.13;;;1.60;;
74158;SDS011;62511;47.970;11.774;2022-10-17T09:38:14;2.53;;;1.58;;
74158;SDS011;62511;47.970;11.774;2022-10-17T09:40:41;1.92;;;1.55;;
74158;SDS011;62511;47.970;11.774;2022-10-17T09:43:10;2.67;;;1.80;;
74158;SDS011;62511;47.970;11.774;2022-10-17T09:45:39;2.20;;;1.60;;
74158;SDS011;62511;47.970;11.774;2022-10-17T09:50:37;2.35;;;1.55;;
74158;SDS011;62511;47.970;11.774;2022-10-17T09:56:06;2.30;;;1.45;;
74158;SDS011;62511;47.970;11.774;2022-10-17T09:58:43;2.67;;;1.52;;
74158;SDS011;62511;47.970;11.774;2022-10-17T10:01:17;2.17;;;1.60;;
74158;SDS011;62511;47.970;11.774;2022-10-17T10:03:43;2.88;;;1.83;;
74158;SDS011;62511;47.970;11.774;2022-10-17T10:11:14;2.85;;;1.58;;
74158;SDS011;62511;47.970;11.774;2022-10-17T10:13:41;2.55;;;1.73;;
74158;SDS011;62511;47.970;11.774;2022-10-17T10:18:39;3.88;;;1.70;;
74158;SDS011;62511;47.970;11.774;2022-10-17T10:21:13;2.70;;;1.50;;
74158;SDS011;62511;47.970;11.774;2022-10-17T10:23:40;2.58;;;1.80;;
74158;SDS011;62511;47.970;11.774;2022-10-17T10:28:56;4.10;;;1.77;;
74158;SDS011;62511;47.970;11.774;2022-10-17T10:31:56;4.47;;;1.80;;
74158;SDS011;62511;47.970;11.774;2022-10-17T10:36:42;4.00;;;1.88;;
74158;SDS011;62511;47.970;11.774;2022-10-17T10:39:21;1.95;;;1.52;;
74158;SDS011;62511;47.970;11.774;2022-10-17T10:41:50;1.88;;;1.38;;
74158;SDS011;62511;47.970;11.774;2022-10-17T10:44:23;2.58;;;1.38;;
74158;SDS011;62511;47.970;11.774;2022-10-17T10:47:04;2.13;;;1.75;;
74158;SDS011;62511;47.970;11.774;2022-10-17T10:49:31;1.80;;;1.60;;
74158;SDS011;62511;47.970;11.774;2022-10-17T10:51:57;2.20;;;1.60;;
74158;SDS011;62511;47.970;11.774;2022-10-17T10:54:24;2.50;;;1.30;;
74158;SDS011;62511;47.970;11.774;2022-10-17T10:56:58;3.35;;;1.67;;
74158;SDS011;62511;47.970;11.774;2022-10-17T11:04:19;3.45;;;1.70;;
74158;SDS011;62511;47.970;11.774;2022-10-17T11:06:46;3.33;;;1.50;;
74158;SDS011;62511;47.970;11.774;2022-10-17T11:12:05;3.03;;;1.70;;
74158;SDS011;62511;47.970;11.774;2022-10-17T11:14:41;2.53;;;1.52;;
74158;SDS011;62511;47.970;11.774;2022-10-17T11:17:16;1.85;;;1.38;;
74158;SDS011;62511;47.970;11.774;2022-10-17T11:22:33;1.60;;;1.20;;
74158;SDS011;62511;47.970;11.774;2022-10-17T11:25:39;1.98;;;1.42;;
74158;SDS011;62511;47.970;11.774;2022-10-17T11:27:46;2.08;;;1.77;;
74158;SDS011;62511;47.970;11.774;2022-10-17T11:30:13;2.03;;;1.50;;
74158;SDS011;62511;47.970;11.774;2022-10-17T11:32:47;2.65;;;1.80;;
74158;SDS011;62511;47.970;11.774;2022-10-17T11:35:19;2.67;;;1.98;;
74158;SDS011;62511;47.970;11.774;2022-10-17T11:40:37;1.85;;;1.15;;
74158;SDS011;62511;47.970;11.774;2022-10-17T11:43:05;3.03;;;1.38;;
74158;SDS011;62511;47.970;11.774;2022-10-17T11:45:38;1.90;;;1.33;;
74158;SDS011;62511;47.970;11.774;2022-10-17T11:48:06;2.00;;;1.48;;
74158;SDS011;62511;47.970;11.774;2022-10-17T11:50:41;4.63;;;1.73;;
74158;SDS011;62511;47.970;11.774;2022-10-17T11:55:37;2.05;;;1.30;;
74158;SDS011;62511;47.970;11.774;2022-10-17T11:58:40;1.75;;;1.40;;
74158;SDS011;62511;47.970;11.774;2022-10-17T12:11:57;2.58;;;1.40;;
74158;SDS011;62511;47.970;11.774;2022-10-17T12:16:59;2.65;;;1.23;;
74158;SDS011;62511;47.970;11.774;2022-10-17T12:19:26;2.53;;;1.60;;
74158;SDS011;62511;47.970;11.774;2022-10-17T12:22:05;2.05;;;1.30;;
74158;SDS011;62511;47.970;11.774;2022-10-17T12:27:15;2.42;;;1.40;;
74158;SDS011;62511;47.970;11.774;2022-10-17T12:29:43;2.25;;;1.30;;
74158;SDS011;62511;47.970;11.774;2022-10-17T12:32:10;3.45;;;1.70;;
74158;SDS011;62511;47.970;11.774;2022-10-17T12:34:37;2.25;;;1.60;;
74158;SDS011;62511;47.970;11.774;2022-10-17T12:37:03;2.83;;;1.60;;
74158;SDS011;62511;47.970;11.774;2022-10-17T12:41:55;1.90;;;1.20;;
74158;SDS011;62511;47.970;11.774;2022-10-17T12:49:36;2.17;;;1.30;;
74158;SDS011;62511;47.970;11.774;2022-10-17T12:52:22;2.33;;;1.58;;
74158;SDS011;62511;47.970;11.774;2022-10-17T12:57:17;1.85;;;1.48;;
74158;SDS011;62511;47.970;11.774;2022-10-17T12:59:45;2.95;;;1.58;;
74158;SDS011;62511;47.970;11.774;2022-10-17T13:02:16;2.70;;;1.50;;
74158;SDS011;62511;47.970;11.774;2022-10-17T13:04:43;1.55;;;1.27;;
74158;SDS011;62511;47.970;11.774;2022-10-17T13:07:19;1.67;;;1.38;;
74158;SDS011;62511;47.970;11.774;2022-10-17T13:09:46;2.33;;;1.50;;
74158;SDS011;62511;47.970;11.774;2022-10-17T13:12:15;3.15;;;1.80;;
74158;SDS011;62511;47.970;11.774;2022-10-17T13:14:42;3.28;;;1.60;;
74158;SDS011;62511;47.970;11.774;2022-10-17T13:17:20;2.05;;;1.40;;
74158;SDS011;62511;47.970;11.774;2022-10-17T13:19:46;3.20;;;1.50;;
74158;SDS011;62511;47.970;11.774;2022-10-17T13:24:45;1.67;;;1.10;;
74158;SDS011;62511;47.970;11.774;2022-10-17T13:27:30;2.72;;;1.23;;
74158;SDS011;62511;47.970;11.774;2022-10-17T13:32:23;1.63;;;1.23;;
74158;SDS011;62511;47.970;11.774;2022-10-17T13:37:48;1.38;;;1.10;;
74158;SDS011;62511;47.970;11.774;2022-10-17T13:40:37;2.85;;;1.23;;
74158;SDS011;62511;47.970;11.774;2022-10-17T13:43:04;2.45;;;1.55;;
74158;SDS011;62511;47.970;11.774;2022-10-17T13:45:36;1.27;;;1.10;;
74158;SDS011;62511;47.970;11.774;2022-10-17T13:48:03;3.15;;;1.10;;
74158;SDS011;62511;47.970;11.774;2022-10-17T13:50:31;4.40;;;1.20;;
74158;SDS011;62511;47.970;11.774;2022-10-17T13:55:57;1.40;;;1.02;;
74158;SDS011;62511;47.970;11.774;2022-10-17T13:58:24;1.73;;;0.90;;
74158;SDS011;62511;47.970;11.774;2022-10-17T14:00:51;2.10;;;1.20;;
74158;SDS011;62511;47.970;11.774;2022-10-17T14:03:20;1.40;;;1.20;;
74158;SDS011;62511;47.970;11.774;2022-10-17T14:06:00;2.03;;;1.13;;
74158;SDS011;62511;47.970;11.774;2022-10-17T14:08:26;1.40;;;1.10;;
74158;SDS011;62511;47.970;11.774;2022-10-17T14:10:54;2.97;;;1.30;;
74158;SDS011;62511;47.970;11.774;2022-10-17T14:13:21;1.30;;;1.00;;
74158;SDS011;62511;47.970;11.774;2022-10-17T14:15:47;1.40;;;0.90;;
74158;SDS011;62511;47.970;11.774;2022-10-17T14:18:16;1.98;;;1.25;;
74158;SDS011;62511;47.970;11.774;2022-10-17T14:20:46;2.47;;;0.98;;
74158;SDS011;62511;47.970;11.774;2022-10-17T14:26:12;1.48;;;1.13;;
74158;SDS011;62511;47.970;11.774;2022-10-17T14:28:39;2.00;;;1.10;;
74158;SDS011;62511;47.970;11.774;2022-10-17T14:33:31;3.60;;;1.08;;
74158;SDS011;62511;47.970;11.774;2022-10-17T14:35:57;3.15;;;1.20;;
74158;SDS011;62511;47.970;11.774;2022-10-17T14:38:24;2.35;;;1.13;;
74158;SDS011;62511;47.970;11.774;2022-10-17T14:43:20;6.30;;;1.60;;
74158;SDS011;62511;47.970;11.774;2022-10-17T14:45:47;2.42;;;1.10;;
74158;SDS011;62511;47.970;11.774;2022-10-17T14:48:17;2.13;;;1.58;;
74158;SDS011;62511;47.970;11.774;2022-10-17T14:53:29;2.42;;;1.10;;
74158;SDS011;62511;47.970;11.774;2022-10-17T14:55:59;1.80;;;1.08;;
74158;SDS011;62511;47.970;11.774;2022-10-17T14:58:26;1.55;;;1.00;;
74158;SDS011;62511;47.970;11.774;2022-10-17T15:00:53;3.28;;;1.13;;
74158;SDS011;62511;47.970;11.774;2022-10-17T15:03:19;3.22;;;1.40;;
74158;SDS011;62511;47.970;11.774;2022-10-17T15:05:46;2.92;;;1.20;;
74158;SDS011;62511;47.970;11.774;2022-10-17T15:08:12;3.53;;;1.10;;
74158;SDS011;62511;47.970;11.774;2022-10-17T15:10:39;2.03;;;1.30;;
74158;SDS011;62511;47.970;11.774;2022-10-17T15:13:09;3.85;;;1.10;;
74158;SDS011;62511;47.970;11.774;2022-10-17T15:15:35;2.58;;;1.25;;
74158;SDS011;62511;47.970;11.774;2022-10-17T15:18:02;1.25;;;1.00;;
74158;SDS011;62511;47.970;11.774;2022-10-17T15:20:29;2.15;;;1.13;;
74158;SDS011;62511;47.970;11.774;2022-10-17T15:22:56;2.92;;;1.20;;
74158;SDS011;62511;47.970;11.774;2022-10-17T15:25:22;1.42;;;1.30;;
74158;SDS011;62511;47.970;11.774;2022-10-17T15:27:48;2.38;;;1.30;;
74158;SDS011;62511;47.970;11.774;2022-10-17T15:30:48;1.92;;;1.52;;
74158;SDS011;62511;47.970;11.774;2022-10-17T15:33:07;1.45;;;1.23;;
74158;SDS011;62511;47.970;11.774;2022-10-17T15:35:33;2.30;;;1.23;;
74158;SDS011;62511;47.970;11.774;2022-10-17T15:37:59;1.38;;;1.20;;
74158;SDS011;62511;47.970;11.774;2022-10-17T15:40:26;1.30;;;1.20;;
74158;SDS011;62511;47.970;11.774;2022-10-17T15:42:53;1.48;;;1.10;;
74158;SDS011;62511;47.970;11.774;2022-10-17T15:45:20;3.33;;;1.27;;
74158;SDS011;62511;47.970;11.774;2022-10-17T15:47:53;2.72;;;1.42;;
74158;SDS011;62511;47.970;11.774;2022-10-17T15:50:20;1.75;;;1.02;;
74158;SDS011;62511;47.970;11.774;2022-10-17T15:52:47;2.90;;;1.20;;
74158;SDS011;62511;47.970;11.774;2022-10-17T15:55:15;3.72;;;1.17;;
74158;SDS011;62511;47.970;11.774;2022-10-17T15:57:42;1.73;;;1.30;;
74158;SDS011;62511;47.970;11.774;2022-10-17T16:00:16;4.93;;;1.48;;
74158;SDS011;62511;47.970;11.774;2022-10-17T16:02:42;1.92;;;1.40;;
74158;SDS011;62511;47.970;11.774;2022-10-17T16:05:18;2.55;;;1.55;;
74158;SDS011;62511;47.970;11.774;2022-10-17T16:07:47;3.88;;;1.45;;
74158;SDS011;62511;47.970;11.774;2022-10-17T16:10:13;2.40;;;1.50;;
74158;SDS011;62511;47.970;11.774;2022-10-17T16:12:40;1.52;;;1.25;;
74158;SDS011;62511;47.970;11.774;2022-10-17T16:15:17;3.45;;;1.70;;
74158;SDS011;62511;47.970;11.774;2022-10-17T16:17:43;3.35;;;1.63;;
74158;SDS011;62511;47.970;11.774;2022-10-17T16:20:11;3.58;;;1.55;;
74158;SDS011;62511;47.970;11.774;2022-10-17T16:22:37;3.65;;;1.77;;
74158;SDS011;62511;47.970;11.774;2022-10-17T16:25:06;2.05;;;1.65;;
74158;SDS011;62511;47.970;11.774;2022-10-17T16:27:36;2.28;;;1.60;;
74158;SDS011;62511;47.970;11.774;2022-10-17T16:30:05;2.72;;;1.58;;
74158;SDS011;62511;47.970;11.774;2022-10-17T16:32:31;3.75;;;2.10;;
74158;SDS011;62511;47.970;11.774;2022-10-17T16:34:57;2.15;;;1.77;;
74158;SDS011;62511;47.970;11.774;2022-10-17T16:37:25;4.35;;;1.95;;
74158;SDS011;62511;47.970;11.774;2022-10-17T16:39:51;3.72;;;2.10;;
74158;SDS011;62511;47.970;11.774;2022-10-17T16:42:20;5.45;;;2.00;;
74158;SDS011;62511;47.970;11.774;2022-10-17T16:44:47;2.80;;;1.67;;
74158;SDS011;62511;47.970;11.774;2022-10-17T16:47:13;4.32;;;1.70;;
74158;SDS011;62511;47.970;11.774;2022-10-17T16:49:39;4.10;;;2.00;;
74158;SDS011;62511;47.970;11.774;2022-10-17T16:52:05;5.70;;;2.60;;
74158;SDS011;62511;47.970;11.774;2022-10-17T16:54:31;5.30;;;2.00;;
74158;SDS011;62511;47.970;11.774;2022-10-17T16:56:58;5.88;;;2.42;;
74158;SDS011;62511;47.970;11.774;2022-10-17T16:59:24;5.05;;;2.10;;
74158;SDS011;62511;47.970;11.774;2022-10-17T17:01:51;3.30;;;1.98;;
74158;SDS011;62511;47.970;11.774;2022-10-17T17:04:17;6.22;;;2.90;;
74158;SDS011;62511;47.970;11.774;2022-10-17T17:06:43;5.13;;;2.10;;
74158;SDS011;62511;47.970;11.774;2022-10-17T17:09:09;4.43;;;1.88;;
74158;SDS011;62511;47.970;11.774;2022-10-17T17:11:35;3.35;;;1.73;;
74158;SDS011;62511;47.970;11.774;2022-10-17T17:14:02;3.28;;;1.98;;
74158;SDS011;62511;47.970;11.774;2022-10-17T17:16:29;5.07;;;2.33;;